createdAt,value
2018-02-26T00:01:41.906Z,-2.00
2018-02-26T00:04:09.467Z,-2.10
2018-02-26T00:06:37.017Z,-2.20
2018-02-26T00:09:04.477Z,-2.20
2018-02-26T00:11:32.034Z,-2.30
2018-02-26T00:13:59.500Z,-2.40
2018-02-26T00:16:27.825Z,-2.20
2018-02-26T00:18:55.297Z,-2.30
2018-02-26T00:21:22.794Z,-2.30
2018-02-26T00:23:50.291Z,-2.50
2018-02-26T00:26:17.806Z,-2.60
2018-02-26T00:28:46.037Z,-2.50
2018-02-26T00:31:13.532Z,-2.60
2018-02-26T00:33:41.098Z,-2.50
2018-02-26T00:36:08.574Z,-2.60
2018-02-26T00:38:36.796Z,-2.50
2018-02-26T00:41:04.277Z,-2.60
2018-02-26T00:43:31.737Z,-2.50
2018-02-26T00:45:59.981Z,-2.30
2018-02-26T00:48:27.453Z,-2.30
2018-02-26T00:50:54.916Z,-2.20
2018-02-26T00:53:22.379Z,-2.30
2018-02-26T00:55:49.849Z,-2.20
2018-02-26T00:58:17.322Z,-2.30
2018-02-26T01:00:45.673Z,-2.40
2018-02-26T01:03:13.138Z,-2.50
2018-02-26T01:05:40.592Z,-2.50
2018-02-26T01:08:08.153Z,-2.50
2018-02-26T01:10:35.605Z,-2.50
2018-02-26T01:13:03.156Z,-2.50
2018-02-26T01:15:30.717Z,-2.50
2018-02-26T01:17:58.188Z,-2.60
2018-02-26T01:20:26.452Z,-2.70
2018-02-26T01:22:54.017Z,-2.70
2018-02-26T01:25:22.242Z,-2.90
2018-02-26T01:27:49.850Z,-2.90
2018-02-26T01:30:17.326Z,-2.90
2018-02-26T01:32:45.544Z,-3.00
2018-02-26T01:35:13.033Z,-3.10
2018-02-26T01:37:40.493Z,-3.10
2018-02-26T01:40:08.770Z,-3.00
2018-02-26T01:42:36.996Z,-3.00
2018-02-26T01:45:04.470Z,-3.10
2018-02-26T01:47:31.933Z,-3.00
2018-02-26T01:49:59.424Z,-3.10
2018-02-26T01:52:27.665Z,-3.00
2018-02-26T01:54:55.129Z,-3.10
2018-02-26T01:57:22.714Z,-3.00
2018-02-26T01:59:50.177Z,-3.00
2018-02-26T02:02:18.416Z,-3.20
2018-02-26T02:04:45.883Z,-3.20
2018-02-26T02:07:13.540Z,-3.20
2018-02-26T02:09:41.026Z,-3.30
2018-02-26T02:12:09.294Z,-3.30
2018-02-26T02:14:37.529Z,-3.30
2018-02-26T02:17:05.001Z,-3.40
2018-02-26T02:19:32.465Z,-3.20
2018-02-26T02:22:00.053Z,-3.30
2018-02-26T02:24:28.276Z,-3.30
2018-02-26T02:26:55.865Z,-3.40
2018-02-26T02:29:24.109Z,-3.50
2018-02-26T02:31:51.638Z,-3.50
2018-02-26T02:34:19.100Z,-3.50
2018-02-26T02:36:46.574Z,-3.50
2018-02-26T02:39:14.125Z,-3.50
2018-02-26T02:41:41.624Z,-3.60
2018-02-26T02:44:09.180Z,-3.70
2018-02-26T02:46:36.650Z,-3.70
2018-02-26T02:49:05.625Z,-3.80
2018-02-26T02:51:33.093Z,-3.80
2018-02-26T02:54:00.652Z,-3.80
2018-02-26T02:56:28.129Z,-3.80
2018-02-26T02:58:56.371Z,-3.70
2018-02-26T03:01:23.828Z,-3.70
2018-02-26T03:03:51.325Z,-3.70
2018-02-26T03:06:19.553Z,-3.70
2018-02-26T03:08:47.188Z,-3.70
2018-02-26T03:11:14.648Z,-3.70
2018-02-26T03:13:42.144Z,-3.60
2018-02-26T03:16:09.604Z,-3.60
2018-02-26T03:18:37.066Z,-3.70
2018-02-26T03:21:04.544Z,-3.70
2018-02-26T03:23:32.780Z,-3.60
2018-02-26T03:26:00.252Z,-3.70
2018-02-26T03:28:29.222Z,-3.50
2018-02-26T03:30:56.701Z,-3.50
2018-02-26T03:33:24.255Z,-3.40
2018-02-26T03:35:51.723Z,-3.30
2018-02-26T03:38:19.980Z,-3.30
2018-02-26T03:40:47.468Z,-3.30
2018-02-26T03:43:15.704Z,-3.30
2018-02-26T03:45:43.176Z,-3.40
2018-02-26T03:48:10.734Z,-3.40
2018-02-26T03:50:38.196Z,-3.40
2018-02-26T03:53:05.748Z,-3.30
2018-02-26T03:55:33.300Z,-3.30
2018-02-26T03:58:02.284Z,-3.40
2018-02-26T04:00:29.749Z,-3.40
2018-02-26T04:02:57.216Z,-3.40
2018-02-26T04:05:24.773Z,-3.40
2018-02-26T04:07:52.236Z,-3.40
2018-02-26T04:10:20.464Z,-3.40
2018-02-26T04:12:47.956Z,-3.50
2018-02-26T04:15:15.419Z,-3.40
2018-02-26T04:17:42.973Z,-3.30
2018-02-26T04:20:10.447Z,-3.30
2018-02-26T04:22:38.717Z,-3.30
2018-02-26T04:25:06.182Z,-3.40
2018-02-26T04:27:34.425Z,-3.30
2018-02-26T04:30:01.899Z,-3.30
2018-02-26T04:32:29.458Z,-3.20
2018-02-26T04:34:57.026Z,-3.20
2018-02-26T04:37:24.489Z,-3.20
2018-02-26T04:39:52.725Z,-3.20
2018-02-26T04:42:20.186Z,-3.20
2018-02-26T04:44:47.656Z,-3.10
2018-02-26T04:47:15.216Z,-3.00
2018-02-26T04:49:42.777Z,-2.90
2018-02-26T04:52:10.333Z,-3.00
2018-02-26T04:54:37.893Z,-3.00
2018-02-26T04:57:05.365Z,-3.00
2018-02-26T04:59:32.832Z,-3.10
2018-02-26T05:02:01.085Z,-3.10
2018-02-26T05:04:30.067Z,-3.10
2018-02-26T05:06:57.536Z,-3.10
2018-02-26T05:09:25.094Z,-3.10
2018-02-26T05:11:52.581Z,-3.10
2018-02-26T05:14:20.825Z,-3.10
2018-02-26T05:16:48.284Z,-3.20
2018-02-26T05:19:16.528Z,-3.10
2018-02-26T05:21:44.016Z,-3.10
2018-02-26T05:24:11.576Z,-3.10
2018-02-26T05:26:39.133Z,-3.10
2018-02-26T05:29:08.108Z,-3.10
2018-02-26T05:31:35.581Z,-3.10
2018-02-26T05:34:03.057Z,-3.10
2018-02-26T05:36:31.280Z,-3.20
2018-02-26T05:38:58.757Z,-3.30
2018-02-26T05:41:26.249Z,-3.20
2018-02-26T05:43:54.499Z,-3.20
2018-02-26T05:46:22.067Z,-3.30
2018-02-26T05:48:49.627Z,-3.20
2018-02-26T05:51:18.597Z,-3.50
2018-02-26T05:53:46.072Z,-3.50
2018-02-26T05:56:13.536Z,-3.50
2018-02-26T05:58:41.768Z,-3.30
2018-02-26T06:01:09.318Z,-3.40
2018-02-26T06:03:37.535Z,-3.20
2018-02-26T06:06:05.043Z,-3.30
2018-02-26T06:08:32.502Z,-3.20
2018-02-26T06:11:00.013Z,-3.20
2018-02-26T06:13:28.245Z,-3.20
2018-02-26T06:15:55.716Z,-3.20
2018-02-26T06:18:23.187Z,-3.10
2018-02-26T06:20:50.673Z,-3.20
2018-02-26T06:23:18.908Z,-3.10
2018-02-26T06:25:46.378Z,-3.20
2018-02-26T06:28:13.874Z,-3.20
2018-02-26T06:30:41.370Z,-3.30
2018-02-26T06:33:10.754Z,-3.50
2018-02-26T06:35:38.221Z,-3.50
2018-02-26T06:38:05.691Z,-3.50
2018-02-26T06:40:33.275Z,-3.40
2018-02-26T06:43:00.746Z,-3.40
2018-02-26T06:45:28.982Z,-3.40
2018-02-26T06:47:56.449Z,-3.40
2018-02-26T06:50:23.973Z,-3.50
2018-02-26T06:52:51.441Z,-3.60
2018-02-26T06:55:18.902Z,-3.40
2018-02-26T06:57:46.678Z,-3.40
2018-02-26T07:00:14.164Z,-3.40
2018-02-26T07:02:41.615Z,-3.40
2018-02-26T07:05:09.097Z,-3.40
2018-02-26T07:07:37.357Z,-3.30
2018-02-26T07:10:04.892Z,-3.40
2018-02-26T07:12:32.350Z,-3.20
2018-02-26T07:14:59.808Z,-3.00
2018-02-26T07:17:27.368Z,-3.00
2018-02-26T07:19:54.842Z,-3.00
2018-02-26T07:22:22.344Z,-3.00
2018-02-26T07:24:49.841Z,-2.90
2018-02-26T07:27:17.420Z,-2.80
2018-02-26T07:29:45.653Z,-3.00
2018-02-26T07:32:13.116Z,-3.00
2018-02-26T07:34:40.693Z,-2.90
2018-02-26T07:37:08.166Z,-2.70
2018-02-26T07:39:36.389Z,-2.60
2018-02-26T07:42:03.866Z,-2.60
2018-02-26T07:44:31.325Z,-2.30
2018-02-26T07:46:58.786Z,-2.10
2018-02-26T07:49:26.258Z,-2.20
2018-02-26T07:51:54.629Z,-2.10
2018-02-26T07:54:22.208Z,-2.10
2018-02-26T07:56:50.468Z,-1.80
2018-02-26T07:59:18.701Z,-1.70
2018-02-26T08:01:46.188Z,-1.70
2018-02-26T08:04:13.754Z,-1.70
2018-02-26T08:06:41.313Z,-1.70
2018-02-26T08:09:08.874Z,-1.90
2018-02-26T08:11:36.368Z,-2.10
2018-02-26T08:14:03.942Z,-2.20
2018-02-26T08:16:31.449Z,-2.10
2018-02-26T08:18:58.913Z,-2.00
2018-02-26T08:21:26.385Z,-1.80
2018-02-26T08:23:54.609Z,-1.30
2018-02-26T08:26:22.147Z,-1.40
2018-02-26T08:28:50.012Z,-1.30
2018-02-26T08:31:17.477Z,-1.00
2018-02-26T08:33:44.971Z,-0.80
2018-02-26T08:36:13.244Z,-0.30
2018-02-26T08:38:40.712Z,-0.30
2018-02-26T08:41:08.261Z,-0.20
2018-02-26T08:43:36.530Z,0.00
2018-02-26T08:46:03.981Z,0.00
2018-02-26T08:48:31.449Z,0.20
2018-02-26T08:50:58.985Z,0.40
2018-02-26T08:53:26.452Z,0.40
2018-02-26T08:55:53.908Z,0.40
2018-02-26T08:58:21.368Z,0.50
2018-02-26T09:00:48.826Z,0.50
2018-02-26T09:03:16.354Z,0.50
2018-02-26T09:05:43.821Z,0.60
2018-02-26T09:08:11.272Z,0.50
2018-02-26T09:10:38.780Z,0.30
2018-02-26T09:13:06.232Z,0.10
2018-02-26T09:15:33.724Z,0.10
2018-02-26T09:18:01.177Z,0.20
2018-02-26T09:20:28.637Z,0.30
2018-02-26T09:22:56.145Z,0.60
2018-02-26T09:25:23.601Z,0.70
2018-02-26T09:27:51.067Z,0.80
2018-02-26T09:30:18.524Z,0.80
2018-02-26T09:32:45.976Z,0.60
2018-02-26T09:35:13.440Z,0.90
2018-02-26T09:37:40.910Z,1.20
2018-02-26T09:40:08.393Z,1.50
2018-02-26T09:42:35.861Z,1.40
2018-02-26T09:45:03.323Z,1.40
2018-02-26T09:47:30.802Z,1.20
2018-02-26T09:50:03.992Z,1.10
2018-02-26T09:52:31.465Z,1.20
2018-02-26T09:54:58.933Z,1.30
2018-02-26T09:57:26.396Z,1.20
2018-02-26T09:59:54.743Z,1.40
2018-02-26T10:02:22.090Z,1.30
2018-02-26T10:04:49.556Z,1.20
2018-02-26T10:07:18.526Z,0.80
2018-02-26T10:09:45.993Z,0.80
2018-02-26T10:12:13.453Z,0.90
2018-02-26T10:14:40.928Z,0.80
2018-02-26T10:17:08.393Z,0.50
2018-02-26T10:19:35.841Z,0.30
2018-02-26T10:22:03.304Z,0.50
2018-02-26T10:24:30.864Z,0.70
2018-02-26T10:26:59.116Z,1.30
2018-02-26T10:29:26.589Z,1.20
2018-02-26T10:31:54.150Z,1.20
2018-02-26T10:34:21.705Z,1.10
2018-02-26T10:36:49.260Z,1.00
2018-02-26T10:39:16.732Z,0.80
2018-02-26T10:41:44.281Z,0.90
2018-02-26T10:44:11.794Z,1.00
2018-02-26T10:46:39.296Z,0.90
2018-02-26T10:49:06.761Z,0.80
2018-02-26T10:51:34.214Z,1.40
2018-02-26T10:54:01.667Z,1.90
2018-02-26T10:56:29.136Z,2.10
2018-02-26T10:58:57.419Z,2.10
2018-02-26T11:01:25.669Z,2.30
2018-02-26T11:03:53.152Z,2.30
2018-02-26T11:06:21.377Z,2.40
2018-02-26T11:08:48.837Z,2.30
2018-02-26T11:11:16.313Z,2.10
2018-02-26T11:13:43.765Z,1.70
2018-02-26T11:16:11.337Z,1.70
2018-02-26T11:18:38.793Z,1.70
2018-02-26T11:21:06.345Z,1.60
2018-02-26T11:23:33.802Z,1.90
2018-02-26T11:26:01.263Z,1.90
2018-02-26T11:28:28.829Z,1.90
2018-02-26T11:30:56.310Z,1.60
2018-02-26T11:33:24.531Z,2.00
2018-02-26T11:35:51.988Z,1.90
2018-02-26T11:38:19.450Z,1.70
2018-02-26T11:40:46.920Z,1.40
2018-02-26T11:43:14.381Z,1.40
2018-02-26T11:45:41.852Z,1.20
2018-02-26T11:48:10.078Z,1.80
2018-02-26T11:50:37.568Z,1.70
2018-02-26T11:53:05.017Z,2.20
2018-02-26T11:55:33.405Z,2.90
2018-02-26T11:58:00.857Z,3.90
2018-02-26T12:00:28.328Z,4.60
2018-02-26T12:02:55.879Z,4.70
2018-02-26T12:05:23.333Z,4.70
2018-02-26T12:07:50.886Z,5.20
2018-02-26T12:10:18.345Z,5.20
2018-02-26T12:12:45.901Z,4.60
2018-02-26T12:15:13.357Z,3.80
2018-02-26T12:17:40.943Z,4.00
2018-02-26T12:20:09.190Z,2.80
2018-02-26T12:22:36.711Z,2.80
2018-02-26T12:25:04.214Z,2.20
2018-02-26T12:27:32.461Z,1.30
2018-02-26T12:29:59.917Z,1.20
2018-02-26T12:32:27.384Z,1.10
2018-02-26T12:34:54.852Z,1.30
2018-02-26T12:37:22.312Z,2.10
2018-02-26T12:39:49.872Z,2.70
2018-02-26T12:42:17.433Z,2.80
2018-02-26T12:44:45.008Z,2.70
2018-02-26T12:47:12.558Z,2.40
2018-02-26T12:49:40.011Z,2.10
2018-02-26T12:52:07.562Z,1.80
2018-02-26T12:54:35.028Z,1.60
2018-02-26T12:57:02.531Z,1.70
2018-02-26T12:59:30.718Z,1.70
2018-02-26T13:01:58.181Z,1.60
2018-02-26T13:04:25.677Z,1.40
2018-02-26T13:06:53.133Z,1.30
2018-02-26T13:09:20.679Z,1.20
2018-02-26T13:11:48.191Z,1.20
2018-02-26T13:14:15.645Z,1.00
2018-02-26T13:16:43.108Z,1.00
2018-02-26T13:19:10.566Z,0.90
2018-02-26T13:21:38.050Z,1.00
2018-02-26T13:24:05.522Z,1.10
2018-02-26T13:26:32.990Z,1.20
2018-02-26T13:29:00.446Z,1.30
2018-02-26T13:31:27.917Z,1.20
2018-02-26T13:33:56.130Z,0.60
2018-02-26T13:36:23.626Z,0.50
2018-02-26T13:38:51.181Z,0.40
2018-02-26T13:41:18.796Z,0.20
2018-02-26T13:43:46.297Z,0.20
2018-02-26T13:46:13.760Z,0.50
2018-02-26T13:48:41.217Z,0.60
2018-02-26T13:51:08.676Z,0.60
2018-02-26T13:53:36.236Z,0.60
2018-02-26T13:56:04.493Z,0.20
2018-02-26T13:58:31.976Z,0.20
2018-02-26T14:01:00.241Z,0.10
2018-02-26T14:03:27.795Z,0.00
2018-02-26T14:05:55.253Z,0.00
2018-02-26T14:08:22.716Z,0.00
2018-02-26T14:10:50.187Z,-0.10
2018-02-26T14:13:18.437Z,-0.10
2018-02-26T14:15:47.407Z,0.10
2018-02-26T14:18:14.884Z,0.10
2018-02-26T14:20:43.880Z,0.30
2018-02-26T14:23:11.345Z,0.30
2018-02-26T14:25:38.805Z,0.60
2018-02-26T14:28:07.029Z,0.70
2018-02-26T14:30:34.524Z,0.60
2018-02-26T14:33:02.001Z,0.80
2018-02-26T14:35:30.237Z,0.70
2018-02-26T14:37:57.689Z,0.60
2018-02-26T14:40:25.154Z,0.90
2018-02-26T14:42:52.666Z,0.90
2018-02-26T14:45:20.296Z,1.00
2018-02-26T14:47:47.759Z,0.90
2018-02-26T14:50:16.068Z,0.40
2018-02-26T14:52:43.524Z,0.30
2018-02-26T14:55:10.991Z,0.20
2018-02-26T14:57:38.444Z,0.20
2018-02-26T15:00:05.977Z,0.50
2018-02-26T15:02:34.205Z,2.60
2018-02-26T15:05:01.669Z,2.60
2018-02-26T15:07:29.254Z,3.70
2018-02-26T15:09:57.481Z,3.40
2018-02-26T15:12:24.972Z,3.30
2018-02-26T15:14:52.442Z,2.40
2018-02-26T15:17:19.917Z,1.50
2018-02-26T15:19:48.173Z,0.80
2018-02-26T15:22:15.644Z,0.80
2018-02-26T15:24:44.949Z,0.70
2018-02-26T15:27:13.251Z,1.60
2018-02-26T15:29:40.702Z,1.50
2018-02-26T15:32:08.161Z,3.40
2018-02-26T15:34:35.627Z,5.30
2018-02-26T15:37:03.130Z,7.00
2018-02-26T15:39:30.690Z,8.10
2018-02-26T15:41:58.177Z,8.70
2018-02-26T15:44:25.707Z,8.90
2018-02-26T15:46:53.173Z,9.50
2018-02-26T15:49:21.389Z,8.80
2018-02-26T15:51:48.852Z,8.70
2018-02-26T15:54:16.693Z,8.10
2018-02-26T15:56:44.243Z,7.60
2018-02-26T15:59:11.705Z,6.70
2018-02-26T16:01:39.169Z,4.90
2018-02-26T16:04:06.634Z,3.40
2018-02-26T16:06:34.108Z,2.30
2018-02-26T16:09:01.576Z,1.50
2018-02-26T16:11:29.033Z,0.70
2018-02-26T16:13:56.504Z,0.50
2018-02-26T16:16:23.971Z,0.20
2018-02-26T16:18:51.684Z,-0.30
2018-02-26T16:21:19.765Z,-0.80
2018-02-26T16:23:47.227Z,-0.80
2018-02-26T16:26:14.688Z,-0.80
2018-02-26T16:28:42.167Z,-1.00
2018-02-26T16:31:11.129Z,-1.30
2018-02-26T16:33:38.598Z,-1.30
2018-02-26T16:36:06.168Z,-1.30
2018-02-26T16:38:34.402Z,-1.50
2018-02-26T16:41:01.907Z,-1.50
2018-02-26T16:43:29.465Z,-1.60
2018-02-26T16:45:58.453Z,-1.80
2018-02-26T16:48:25.908Z,-1.80
2018-02-26T16:50:53.377Z,-1.80
2018-02-26T16:53:20.926Z,-1.90
2018-02-26T16:55:48.488Z,-1.90
2018-02-26T16:58:15.945Z,-1.80
2018-02-26T17:00:43.407Z,-1.70
2018-02-26T17:03:10.868Z,-1.70
2018-02-26T17:05:38.337Z,-1.70
2018-02-26T17:08:06.564Z,-1.70
2018-02-26T17:10:34.025Z,-1.80
2018-02-26T17:13:01.505Z,-1.80
2018-02-26T17:15:29.777Z,-1.90
2018-02-26T17:17:58.764Z,-1.90
2018-02-26T17:20:26.249Z,-1.90
2018-02-26T17:22:54.500Z,-2.10
2018-02-26T17:25:23.478Z,-2.20
2018-02-26T17:27:50.945Z,-2.20
2018-02-26T17:30:18.417Z,-2.20
2018-02-26T17:32:45.950Z,-2.30
2018-02-26T17:35:13.426Z,-2.30
2018-02-26T17:37:40.900Z,-2.20
2018-02-26T17:40:09.148Z,-2.10
2018-02-26T17:42:36.730Z,-2.10
2018-02-26T17:45:04.964Z,-2.10
2018-02-26T17:47:32.430Z,-2.20
2018-02-26T17:49:59.941Z,-2.20
2018-02-26T17:52:27.402Z,-2.30
2018-02-26T17:54:54.869Z,-2.30
2018-02-26T17:57:22.431Z,-2.40
2018-02-26T17:59:49.892Z,-2.30
2018-02-26T18:02:17.361Z,-2.30
2018-02-26T18:04:44.834Z,-2.30
2018-02-26T18:07:12.293Z,-2.20
2018-02-26T18:09:39.748Z,-2.30
2018-02-26T18:12:07.215Z,-2.20
2018-02-26T18:14:36.205Z,-2.40
2018-02-26T18:17:05.189Z,-2.40
2018-02-26T18:19:32.649Z,-2.40
2018-02-26T18:22:00.113Z,-2.40
2018-02-26T18:24:27.568Z,-2.40
2018-02-26T18:26:55.032Z,-2.40
2018-02-26T18:58:49.088Z,-2.50
2018-02-26T19:01:16.590Z,-2.60
2018-02-26T19:03:44.059Z,-2.40
2018-02-26T19:06:11.722Z,-2.30
2018-02-26T19:08:39.188Z,-2.30
2018-02-26T19:11:06.658Z,-2.40
2018-02-26T19:13:34.137Z,-2.40
2018-02-26T19:16:01.697Z,-2.40
2018-02-26T19:18:29.215Z,-2.40
2018-02-26T19:20:56.676Z,-2.40
2018-02-26T19:23:24.166Z,-2.40
2018-02-26T19:25:51.632Z,-2.40
2018-02-26T19:28:19.109Z,-2.50
2018-02-26T19:30:47.338Z,-2.40
2018-02-26T19:33:14.792Z,-2.50
2018-02-26T19:35:42.265Z,-2.40
2018-02-26T19:38:09.737Z,-2.60
2018-02-26T19:40:37.961Z,-2.60
2018-02-26T19:43:05.430Z,-2.70
2018-02-26T19:45:32.914Z,-2.70
2018-02-26T19:48:00.393Z,-2.70
2018-02-26T19:50:28.758Z,-2.80
2018-02-26T19:52:57.003Z,-2.80
2018-02-26T19:55:24.440Z,-2.90
2018-02-26T19:57:51.983Z,-2.80
2018-02-26T20:00:19.496Z,-2.70
2018-02-26T20:02:46.992Z,-2.80
2018-02-26T20:05:14.482Z,-2.70
2018-02-26T20:07:41.972Z,-2.80
2018-02-26T20:10:09.447Z,-3.00
2018-02-26T20:12:37.909Z,-3.30
2018-02-26T20:15:05.526Z,-3.40
2018-02-26T20:17:32.990Z,-3.30
2018-02-26T20:20:00.487Z,-3.30
2018-02-26T20:22:27.962Z,-3.40
2018-02-26T20:24:56.189Z,-3.50
2018-02-26T20:27:23.669Z,-3.60
2018-02-26T20:29:51.128Z,-3.50
2018-02-26T20:32:18.635Z,-3.50
2018-02-26T20:34:46.122Z,-3.60
2018-02-26T20:37:13.599Z,-3.60
2018-02-26T20:39:41.166Z,-3.70
2018-02-26T20:42:08.620Z,-3.70
2018-02-26T20:44:36.072Z,-3.80
2018-02-26T20:47:03.553Z,-3.80
2018-02-26T20:49:31.867Z,-3.70
2018-02-26T20:51:59.357Z,-3.80
2018-02-26T20:54:26.850Z,-3.70
2018-02-26T20:56:55.081Z,-3.80
2018-02-26T20:59:22.667Z,-3.90
2018-02-26T21:01:50.209Z,-3.70
2018-02-26T21:04:18.479Z,-3.70
2018-02-26T21:06:45.941Z,-3.80
2018-02-26T21:09:13.522Z,-3.80
2018-02-26T21:11:41.777Z,-3.80
2018-02-26T21:14:09.252Z,-3.90
2018-02-26T21:16:37.474Z,-3.70
2018-02-26T21:19:05.225Z,-3.70
2018-02-26T21:21:32.735Z,-3.60
2018-02-26T21:24:00.349Z,-3.50
2018-02-26T21:26:27.829Z,-3.60
2018-02-26T21:28:55.360Z,-3.60
2018-02-26T21:31:22.817Z,-3.70
2018-02-26T21:33:50.302Z,-3.80
2018-02-26T21:36:17.787Z,-3.90
2018-02-26T21:38:45.269Z,-3.90
2018-02-26T21:41:12.730Z,-3.90
2018-02-26T21:43:40.200Z,-3.90
2018-02-26T21:46:07.665Z,-3.80
2018-02-26T21:48:35.117Z,-3.80
2018-02-26T21:51:02.673Z,-3.80
2018-02-26T21:53:30.132Z,-3.80
2018-02-26T21:55:57.601Z,-3.80
2018-02-26T21:58:25.072Z,-3.80
2018-02-26T22:00:52.561Z,-3.80
2018-02-26T22:03:20.784Z,-3.90
2018-02-26T22:05:48.308Z,-4.00
2018-02-26T22:08:16.541Z,-4.10
2018-02-26T22:10:44.127Z,-4.10
2018-02-26T22:13:11.589Z,-4.10
2018-02-26T22:15:39.829Z,-4.20
2018-02-26T22:18:07.296Z,-4.20
2018-02-26T22:20:34.769Z,-4.20
2018-02-26T22:23:03.046Z,-4.40
2018-02-26T22:25:30.499Z,-4.50
2018-02-26T22:27:58.052Z,-4.40
2018-02-26T22:30:25.527Z,-4.50
2018-02-26T22:32:53.799Z,-4.50
2018-02-26T22:35:21.302Z,-4.60
2018-02-26T22:37:48.777Z,-4.50
2018-02-26T22:40:16.345Z,-4.50
2018-02-26T22:42:43.920Z,-4.50
2018-02-26T22:45:11.396Z,-4.60
2018-02-26T22:47:39.703Z,-4.50
2018-02-26T22:50:07.201Z,-4.60
2018-02-26T22:52:36.204Z,-4.60
2018-02-26T22:55:03.680Z,-4.60
2018-02-26T22:57:31.904Z,-4.50
2018-02-26T22:59:59.381Z,-4.60
2018-02-26T23:02:26.945Z,-4.60
2018-02-26T23:04:54.504Z,-4.70
2018-02-26T23:07:21.965Z,-4.70
2018-02-26T23:09:49.426Z,-4.80
2018-02-26T23:12:16.893Z,-4.70
2018-02-26T23:14:45.149Z,-4.70
2018-02-26T23:17:12.614Z,-4.80
2018-02-26T23:19:40.081Z,-4.70
2018-02-26T23:22:08.338Z,-4.70
2018-02-26T23:24:35.808Z,-4.80
2018-02-26T23:27:03.348Z,-4.80
2018-02-26T23:29:30.822Z,-4.90
2018-02-26T23:31:58.354Z,-5.00
2018-02-26T23:34:25.821Z,-5.00
2018-02-26T23:36:53.284Z,-5.00
2018-02-26T23:39:20.810Z,-4.90
2018-02-26T23:41:48.274Z,-4.90
2018-02-26T23:44:15.765Z,-4.80
2018-02-26T23:46:44.009Z,-4.90
2018-02-26T23:49:11.469Z,-4.90
2018-02-26T23:51:39.045Z,-4.80
2018-02-26T23:54:18.436Z,-4.80
2018-02-26T23:56:45.936Z,-4.90
2018-02-26T23:59:13.403Z,-5.10
